createdAt,value
2018-08-07T00:01:14.265Z,99.90
2018-08-07T00:06:11.062Z,99.90
2018-08-07T00:08:39.668Z,99.90
2018-08-07T00:11:08.222Z,99.90
2018-08-07T00:13:36.796Z,99.90
2018-08-07T00:16:05.317Z,99.90
2018-08-07T00:18:33.881Z,99.90
2018-08-07T00:21:02.478Z,99.90
2018-08-07T00:23:31.049Z,99.90
2018-08-07T00:25:59.565Z,99.90
2018-08-07T00:28:28.117Z,99.90
2018-08-07T00:30:56.665Z,99.90
2018-08-07T00:33:25.238Z,99.90
2018-08-07T00:35:53.788Z,99.90
2018-08-07T00:38:22.317Z,99.90
2018-08-07T00:40:50.903Z,99.90
2018-08-07T00:43:19.494Z,99.90
2018-08-07T00:45:48.084Z,99.90
2018-08-07T00:48:16.640Z,99.90
2018-08-07T00:50:45.271Z,99.90
2018-08-07T00:53:13.855Z,99.90
2018-08-07T00:55:42.464Z,99.90
2018-08-07T00:58:11.059Z,99.90
2018-08-07T01:00:39.678Z,99.90
2018-08-07T01:03:08.265Z,99.90
2018-08-07T01:05:36.850Z,99.90
2018-08-07T01:08:05.477Z,99.90
2018-08-07T01:10:33.970Z,99.90
2018-08-07T01:13:02.492Z,99.90
2018-08-07T01:17:59.361Z,99.90
2018-08-07T01:20:27.926Z,99.90
2018-08-07T01:25:25.921Z,99.90
2018-08-07T01:30:24.446Z,99.90
2018-08-07T01:32:53.406Z,99.90
2018-08-07T01:35:22.081Z,99.90
2018-08-07T01:37:50.672Z,99.90
2018-08-07T01:40:19.204Z,99.90
2018-08-07T01:42:47.742Z,99.90
2018-08-07T01:45:16.478Z,99.90
2018-08-07T01:47:45.037Z,99.90
2018-08-07T01:50:14.793Z,99.90
2018-08-07T01:52:43.627Z,99.90
2018-08-07T01:57:44.805Z,99.90
2018-08-07T02:00:13.377Z,99.90
2018-08-07T02:05:11.923Z,99.90
2018-08-07T02:07:40.921Z,99.90
2018-08-07T02:10:15.896Z,99.90
2018-08-07T02:12:44.455Z,99.90
2018-08-07T02:15:13.639Z,99.90
2018-08-07T02:17:42.203Z,99.90
2018-08-07T02:20:12.701Z,99.90
2018-08-07T02:25:12.526Z,99.90
2018-08-07T02:30:11.070Z,99.90
2018-08-07T02:32:39.976Z,99.90
2018-08-07T02:35:10.353Z,99.90
2018-08-07T02:40:08.745Z,99.90
2018-08-07T02:42:37.285Z,99.90
2018-08-07T02:45:08.637Z,99.90
2018-08-07T02:47:37.204Z,99.90
2018-08-07T02:50:06.344Z,99.90
2018-08-07T02:52:35.352Z,99.90
2018-08-07T02:55:04.545Z,99.90
2018-08-07T02:57:33.125Z,99.90
2018-08-07T03:00:01.719Z,99.90
2018-08-07T03:02:30.353Z,99.90
2018-08-07T03:04:58.990Z,99.90
2018-08-07T03:07:27.612Z,99.90
2018-08-07T03:09:56.120Z,99.90
2018-08-07T03:12:24.802Z,99.90
2018-08-07T03:14:53.416Z,99.90
2018-08-07T03:17:22.015Z,99.90
2018-08-07T03:22:18.817Z,99.90
2018-08-07T03:24:47.475Z,99.90
2018-08-07T03:27:16.094Z,99.90
2018-08-07T03:29:44.729Z,99.90
2018-08-07T03:32:13.412Z,99.90
2018-08-07T03:34:42.062Z,99.90
2018-08-07T03:37:10.677Z,99.90
2018-08-07T03:39:39.254Z,99.90
2018-08-07T03:42:07.973Z,99.90
2018-08-07T03:44:36.567Z,99.90
2018-08-07T03:47:05.286Z,99.90
2018-08-07T03:49:33.918Z,99.90
2018-08-07T03:52:02.468Z,99.90
2018-08-07T03:54:31.159Z,99.90
2018-08-07T03:56:59.733Z,99.90
2018-08-07T03:59:28.352Z,99.90
2018-08-07T04:01:56.960Z,99.90
2018-08-07T04:04:25.534Z,99.90
2018-08-07T04:09:22.277Z,99.90
2018-08-07T04:14:19.088Z,99.90
2018-08-07T04:16:55.871Z,99.90
2018-08-07T04:19:27.558Z,99.90
2018-08-07T04:21:57.190Z,99.90
2018-08-07T04:24:26.717Z,99.90
2018-08-07T04:26:55.397Z,99.90
2018-08-07T04:29:23.925Z,99.90
2018-08-07T04:31:52.559Z,99.90
2018-08-07T04:34:21.184Z,99.90
2018-08-07T04:36:50.250Z,99.90
2018-08-07T04:39:18.833Z,99.90
2018-08-07T04:41:47.512Z,99.90
2018-08-07T04:44:16.205Z,99.90
2018-08-07T04:46:44.766Z,99.90
2018-08-07T04:49:13.389Z,99.90
2018-08-07T04:51:42.187Z,99.90
2018-08-07T04:54:10.747Z,99.90
2018-08-07T04:56:39.484Z,99.90
2018-08-07T04:59:08.228Z,99.90
2018-08-07T05:01:36.821Z,99.90
2018-08-07T05:04:05.486Z,99.90
2018-08-07T05:06:34.078Z,99.90
2018-08-07T05:09:02.833Z,99.90
2018-08-07T05:11:31.372Z,99.90
2018-08-07T05:13:59.982Z,99.90
2018-08-07T05:16:28.599Z,99.90
2018-08-07T05:18:57.270Z,99.90
2018-08-07T05:21:25.882Z,99.90
2018-08-07T05:23:54.467Z,99.90
2018-08-07T05:26:23.001Z,99.90
2018-08-07T05:28:51.880Z,99.90
2018-08-07T05:31:20.456Z,99.90
2018-08-07T05:33:49.103Z,99.90
2018-08-07T05:36:17.740Z,99.90
2018-08-07T05:38:46.348Z,99.90
2018-08-07T05:41:15.025Z,99.90
2018-08-07T05:43:43.585Z,99.90
2018-08-07T05:46:12.141Z,99.90
2018-08-07T05:48:40.727Z,99.90
2018-08-07T05:51:09.626Z,99.90
2018-08-07T05:53:38.061Z,99.90
2018-08-07T05:56:06.717Z,99.90
2018-08-07T05:58:35.313Z,99.90
2018-08-07T06:01:03.862Z,99.90
2018-08-07T06:03:32.807Z,99.90
2018-08-07T06:06:01.374Z,99.90
2018-08-07T06:08:29.939Z,99.90
2018-08-07T06:10:58.501Z,99.90
2018-08-07T06:13:27.076Z,99.90
2018-08-07T06:18:23.893Z,99.90
2018-08-07T06:20:52.442Z,99.90
2018-08-07T06:23:21.128Z,99.90
2018-08-07T06:25:49.826Z,99.90
2018-08-07T06:28:18.505Z,99.90
2018-08-07T06:30:47.445Z,99.90
2018-08-07T06:33:16.085Z,99.90
2018-08-07T06:35:44.683Z,99.90
2018-08-07T06:38:13.445Z,99.90
2018-08-07T06:40:42.269Z,99.90
2018-08-07T06:43:11.148Z,99.90
2018-08-07T06:45:39.748Z,99.90
2018-08-07T06:48:08.323Z,99.90
2018-08-07T06:50:36.891Z,99.90
2018-08-07T06:53:05.792Z,99.90
2018-08-07T06:55:34.400Z,99.90
2018-08-07T06:58:02.951Z,99.90
2018-08-07T07:00:31.912Z,99.90
2018-08-07T07:03:00.437Z,99.90
2018-08-07T07:05:29.010Z,99.90
2018-08-07T07:07:57.684Z,99.90
2018-08-07T07:10:26.399Z,99.90
2018-08-07T07:12:55.164Z,99.90
2018-08-07T07:15:23.877Z,99.90
2018-08-07T07:17:52.438Z,99.90
2018-08-07T07:20:20.953Z,99.90
2018-08-07T07:22:49.985Z,99.90
2018-08-07T07:27:47.306Z,99.90
2018-08-07T07:30:18.206Z,99.90
2018-08-07T07:35:16.923Z,99.90
2018-08-07T07:37:45.643Z,99.90
2018-08-07T07:40:14.305Z,99.90
2018-08-07T07:42:42.893Z,99.90
2018-08-07T07:45:14.473Z,99.90
2018-08-07T07:47:43.126Z,99.90
2018-08-07T07:50:14.832Z,99.90
2018-08-07T07:52:43.755Z,99.90
2018-08-07T07:55:13.501Z,99.90
2018-08-07T07:57:42.266Z,99.90
2018-08-07T08:00:18.506Z,99.90
2018-08-07T08:05:37.766Z,99.90
2018-08-07T08:08:06.439Z,99.90
2018-08-07T08:10:35.000Z,99.90
2018-08-07T08:13:03.777Z,99.90
2018-08-07T08:15:32.421Z,99.90
2018-08-07T08:18:01.324Z,99.90
2018-08-07T08:20:30.042Z,99.90
2018-08-07T08:22:58.634Z,99.90
2018-08-07T08:25:27.321Z,99.90
2018-08-07T08:27:55.962Z,99.90
2018-08-07T08:30:24.595Z,99.90
2018-08-07T08:32:53.336Z,99.90
2018-08-07T08:35:21.989Z,99.90
2018-08-07T08:37:50.811Z,99.90
2018-08-07T08:40:22.239Z,99.90
2018-08-07T08:42:51.044Z,99.90
2018-08-07T08:45:22.138Z,99.90
2018-08-07T08:47:52.250Z,99.90
2018-08-07T08:50:21.868Z,99.90
2018-08-07T08:52:50.464Z,99.90
2018-08-07T08:55:19.170Z,99.90
2018-08-07T08:57:47.769Z,99.90
2018-08-07T09:00:21.082Z,99.90
2018-08-07T09:02:49.643Z,99.90
2018-08-07T09:05:18.817Z,99.60
2018-08-07T09:07:47.464Z,99.50
2018-08-07T09:10:20.158Z,99.10
2018-08-07T09:12:49.784Z,98.90
2018-08-07T09:15:18.777Z,98.70
2018-08-07T09:17:47.753Z,96.60
2018-08-07T09:20:22.298Z,96.30
2018-08-07T09:22:51.058Z,95.40
2018-08-07T09:25:20.394Z,94.80
2018-08-07T09:27:49.169Z,93.30
2018-08-07T09:30:19.905Z,93.80
2018-08-07T09:32:49.943Z,91.60
2018-08-07T09:35:19.427Z,91.60
2018-08-07T09:37:48.303Z,92.20
2018-08-07T09:40:18.194Z,92.00
2018-08-07T09:42:48.093Z,92.30
2018-08-07T09:45:19.568Z,91.40
2018-08-07T09:47:48.284Z,90.40
2018-08-07T09:50:18.704Z,90.40
2018-08-07T09:52:47.905Z,88.60
2018-08-07T09:55:16.567Z,89.30
2018-08-07T09:57:45.128Z,83.40
2018-08-07T10:00:21.517Z,83.60
2018-08-07T10:02:52.581Z,82.90
2018-08-07T10:05:23.240Z,83.60
2018-08-07T10:07:51.773Z,80.30
2018-08-07T10:10:20.870Z,78.60
2018-08-07T10:12:49.477Z,73.90
2018-08-07T10:17:51.335Z,75.80
2018-08-07T10:20:19.982Z,74.60
2018-08-07T10:22:48.574Z,76.20
2018-08-07T10:25:18.622Z,75.30
2018-08-07T10:27:48.030Z,70.00
2018-08-07T10:32:45.823Z,67.60
2018-08-07T10:35:14.905Z,68.00
2018-08-07T10:37:44.232Z,67.00
2018-08-07T10:40:14.342Z,64.70
2018-08-07T10:42:43.046Z,64.00
2018-08-07T10:45:13.380Z,62.50
2018-08-07T10:47:42.047Z,63.30
2018-08-07T10:50:18.627Z,63.40
2018-08-07T10:52:47.773Z,60.00
2018-08-07T10:55:16.476Z,59.60
2018-08-07T10:57:46.643Z,60.00
2018-08-07T11:00:17.672Z,58.60
2018-08-07T11:02:47.422Z,57.40
2018-08-07T11:05:16.364Z,60.60
2018-08-07T11:07:44.924Z,58.30
2018-08-07T11:10:14.305Z,59.80
2018-08-07T11:12:43.082Z,58.90
2018-08-07T11:15:17.548Z,61.70
2018-08-07T11:17:48.315Z,61.10
2018-08-07T11:20:17.907Z,57.80
2018-08-07T11:22:48.008Z,57.70
2018-08-07T11:25:19.832Z,57.40
2018-08-07T11:27:50.599Z,57.70
2018-08-07T11:30:22.213Z,57.60
2018-08-07T11:32:52.110Z,57.10
2018-08-07T11:35:21.619Z,57.20
2018-08-07T11:37:51.096Z,56.70
2018-08-07T11:40:22.696Z,57.20
2018-08-07T11:42:52.362Z,56.30
2018-08-07T11:45:23.458Z,54.20
2018-08-07T11:47:52.111Z,55.60
2018-08-07T11:50:23.588Z,56.00
2018-08-07T11:52:52.245Z,55.00
2018-08-07T11:55:23.819Z,54.60
2018-08-07T11:57:53.421Z,54.00
2018-08-07T12:00:38.953Z,55.60
2018-08-07T12:03:10.642Z,54.80
2018-08-07T12:05:39.227Z,55.50
2018-08-07T12:09:17.210Z,54.30
2018-08-07T12:11:45.799Z,53.30
2018-08-07T12:16:42.709Z,52.10
2018-08-07T12:19:11.286Z,51.70
2018-08-07T12:21:39.876Z,51.30
2018-08-07T12:24:08.792Z,50.80
2018-08-07T12:26:37.336Z,48.90
2018-08-07T12:29:05.978Z,48.80
2018-08-07T12:31:34.924Z,48.40
2018-08-07T12:34:03.556Z,49.60
2018-08-07T12:36:32.161Z,48.00
2018-08-07T12:39:00.750Z,46.80
2018-08-07T12:43:57.574Z,48.40
2018-08-07T12:46:26.330Z,48.00
2018-08-07T12:48:54.844Z,47.90
2018-08-07T12:51:23.420Z,47.00
2018-08-07T12:53:52.201Z,46.00
2018-08-07T12:56:21.005Z,45.30
2018-08-07T12:58:49.686Z,46.70
2018-08-07T13:01:18.229Z,45.90
2018-08-07T13:03:46.783Z,47.10
2018-08-07T13:06:15.359Z,45.90
2018-08-07T13:08:43.942Z,45.30
2018-08-07T13:11:12.484Z,44.20
2018-08-07T13:13:41.025Z,44.70
2018-08-07T13:16:09.608Z,44.60
2018-08-07T13:18:38.161Z,44.80
2018-08-07T13:21:06.725Z,45.00
2018-08-07T13:23:35.236Z,44.60
2018-08-07T13:26:03.845Z,42.50
2018-08-07T13:28:32.421Z,42.50
2018-08-07T13:31:01.702Z,43.80
2018-08-07T13:33:30.260Z,40.90
2018-08-07T13:35:58.872Z,40.50
2018-08-07T13:38:27.455Z,40.00
2018-08-07T13:40:56.113Z,41.50
2018-08-07T13:43:24.692Z,41.00
2018-08-07T13:45:53.490Z,41.10
2018-08-07T13:48:22.017Z,39.90
2018-08-07T13:50:50.594Z,42.60
2018-08-07T13:53:19.165Z,42.30
2018-08-07T13:55:47.840Z,41.40
2018-08-07T13:58:16.394Z,40.30
2018-08-07T14:00:44.966Z,40.80
2018-08-07T14:03:13.573Z,39.80
2018-08-07T14:05:42.113Z,38.80
2018-08-07T14:08:10.740Z,39.10
2018-08-07T14:10:39.313Z,38.50
2018-08-07T14:13:07.909Z,37.80
2018-08-07T14:15:36.587Z,37.90
2018-08-07T14:18:05.378Z,37.40
2018-08-07T14:20:33.984Z,37.50
2018-08-07T14:23:02.560Z,37.90
2018-08-07T14:25:31.135Z,38.60
2018-08-07T14:27:59.727Z,37.20
2018-08-07T14:30:29.706Z,36.60
2018-08-07T14:33:02.371Z,36.80
2018-08-07T14:35:30.990Z,36.40
2018-08-07T14:37:59.605Z,37.40
2018-08-07T14:40:28.709Z,37.80
2018-08-07T14:42:57.557Z,37.90
2018-08-07T14:45:27.660Z,36.50
2018-08-07T14:47:56.917Z,37.10
2018-08-07T14:50:27.314Z,38.90
2018-08-07T14:52:56.047Z,37.00
2018-08-07T14:55:25.035Z,37.50
2018-08-07T14:57:54.066Z,38.00
2018-08-07T15:00:24.395Z,36.50
2018-08-07T15:02:52.990Z,37.50
2018-08-07T15:05:21.525Z,37.50
2018-08-07T15:07:50.062Z,36.90
2018-08-07T15:10:20.581Z,36.90
2018-08-07T15:12:49.163Z,36.10
2018-08-07T15:17:48.106Z,35.00
2018-08-07T15:20:20.089Z,34.70
2018-08-07T15:22:49.857Z,33.90
2018-08-07T15:25:19.217Z,34.00
2018-08-07T15:27:47.905Z,32.60
2018-08-07T15:30:18.764Z,32.10
2018-08-07T15:32:48.077Z,34.50
2018-08-07T15:35:18.199Z,35.00
2018-08-07T15:37:47.003Z,35.50
2018-08-07T15:40:16.349Z,36.40
2018-08-07T15:42:45.589Z,37.20
2018-08-07T15:45:15.813Z,37.10
2018-08-07T15:47:44.472Z,36.50
2018-08-07T15:50:15.397Z,35.40
2018-08-07T15:52:45.419Z,35.60
2018-08-07T15:55:17.185Z,34.70
2018-08-07T15:57:45.864Z,35.10
2018-08-07T16:00:18.684Z,34.50
2018-08-07T16:02:47.307Z,34.50
2018-08-07T16:05:16.214Z,34.20
2018-08-07T16:07:44.857Z,33.50
2018-08-07T16:10:16.405Z,33.00
2018-08-07T16:12:46.178Z,32.10
2018-08-07T16:15:14.823Z,32.60
2018-08-07T16:17:44.448Z,34.30
2018-08-07T16:20:13.061Z,35.00
2018-08-07T16:22:41.845Z,35.70
2018-08-07T16:25:12.322Z,36.50
2018-08-07T16:27:42.469Z,36.00
2018-08-07T16:30:13.319Z,36.10
2018-08-07T16:32:41.933Z,36.90
2018-08-07T16:35:10.730Z,36.10
2018-08-07T16:37:39.341Z,34.90
2018-08-07T16:40:10.253Z,36.30
2018-08-07T16:42:39.219Z,36.60
2018-08-07T16:45:09.946Z,35.80
2018-08-07T16:47:39.130Z,35.60
2018-08-07T16:50:08.996Z,35.70
2018-08-07T16:52:37.732Z,35.50
2018-08-07T16:55:07.202Z,35.70
2018-08-07T16:57:35.806Z,35.30
2018-08-07T17:00:06.347Z,33.50
2018-08-07T17:02:35.037Z,33.80
2018-08-07T17:05:03.980Z,34.60
2018-08-07T17:10:00.808Z,37.00
2018-08-07T17:12:29.363Z,37.30
2018-08-07T17:14:57.948Z,36.80
2018-08-07T17:17:26.526Z,37.70
2018-08-07T17:19:55.133Z,36.90
2018-08-07T17:22:23.745Z,36.40
2018-08-07T17:24:52.347Z,37.40
2018-08-07T17:27:20.879Z,43.30
2018-08-07T17:29:49.477Z,45.80
2018-08-07T17:32:18.022Z,46.30
2018-08-07T17:34:46.622Z,47.70
2018-08-07T17:37:15.198Z,49.00
2018-08-07T17:39:43.827Z,49.90
2018-08-07T17:42:12.366Z,50.50
2018-08-07T17:44:40.917Z,50.90
2018-08-07T17:47:09.613Z,51.20
2018-08-07T17:49:38.240Z,51.50
2018-08-07T17:52:07.342Z,52.00
2018-08-07T17:54:35.902Z,52.60
2018-08-07T17:57:04.455Z,53.10
2018-08-07T17:59:33.107Z,53.90
2018-08-07T18:02:01.742Z,54.50
2018-08-07T18:04:30.436Z,54.70
2018-08-07T18:06:58.999Z,55.00
2018-08-07T18:09:27.563Z,55.70
2018-08-07T18:11:56.135Z,56.80
2018-08-07T18:14:24.700Z,57.90
2018-08-07T18:16:53.337Z,58.90
2018-08-07T18:19:21.945Z,59.40
2018-08-07T18:21:50.586Z,59.80
2018-08-07T18:24:19.153Z,59.80
2018-08-07T18:26:47.680Z,59.10
2018-08-07T18:29:16.381Z,58.70
2018-08-07T18:31:44.970Z,59.10
2018-08-07T18:34:13.536Z,59.10
2018-08-07T18:36:42.086Z,58.90
2018-08-07T18:39:10.788Z,58.90
2018-08-07T18:41:39.498Z,58.90
2018-08-07T18:44:08.118Z,59.10
2018-08-07T18:46:37.298Z,59.30
2018-08-07T18:49:05.881Z,59.50
2018-08-07T18:51:34.627Z,59.90
2018-08-07T18:54:03.157Z,60.20
2018-08-07T18:56:31.733Z,60.60
2018-08-07T18:59:00.339Z,60.70
2018-08-07T19:01:28.896Z,61.00
2018-08-07T19:03:57.453Z,61.40
2018-08-07T19:06:25.978Z,61.70
2018-08-07T19:08:54.638Z,61.90
2018-08-07T19:13:51.380Z,62.90
2018-08-07T19:16:20.119Z,63.30
2018-08-07T19:18:48.697Z,63.40
2018-08-07T19:21:17.254Z,63.30
2018-08-07T19:23:45.826Z,63.90
2018-08-07T19:28:42.664Z,64.70
2018-08-07T19:31:11.260Z,64.80
2018-08-07T19:33:40.012Z,65.60
2018-08-07T19:36:08.596Z,66.10
2018-08-07T19:38:37.346Z,66.70
2018-08-07T19:41:06.120Z,66.90
2018-08-07T19:43:34.682Z,67.20
2018-08-07T19:46:03.309Z,66.70
2018-08-07T19:48:31.918Z,66.90
2018-08-07T19:51:00.546Z,67.10
2018-08-07T19:53:29.133Z,66.70
2018-08-07T19:55:57.876Z,66.70
2018-08-07T20:00:54.621Z,66.70
2018-08-07T20:03:23.274Z,66.50
2018-08-07T20:08:26.575Z,66.00
2018-08-07T20:10:55.218Z,66.10
2018-08-07T20:13:23.794Z,65.80
2018-08-07T20:16:21.053Z,65.50
2018-08-07T20:18:49.692Z,65.20
2018-08-07T20:21:18.313Z,64.60
2018-08-07T20:23:46.858Z,64.10
2018-08-07T20:26:15.766Z,63.90
2018-08-07T20:28:44.217Z,63.90
2018-08-07T20:31:12.969Z,63.90
2018-08-07T20:33:41.562Z,63.60
2018-08-07T20:36:10.209Z,63.70
2018-08-07T20:38:38.738Z,63.80
2018-08-07T20:41:07.513Z,63.80
2018-08-07T20:43:36.136Z,63.90
2018-08-07T20:46:04.715Z,63.90
2018-08-07T20:48:33.304Z,63.80
2018-08-07T20:51:01.894Z,64.00
2018-08-07T20:53:30.512Z,64.20
2018-08-07T20:55:59.190Z,64.60
2018-08-07T20:58:27.902Z,65.00
2018-08-07T21:00:56.529Z,65.00
2018-08-07T21:03:25.090Z,65.00
2018-08-07T21:05:55.015Z,65.20
2018-08-07T21:08:23.721Z,65.40
2018-08-07T21:10:52.731Z,65.80
2018-08-07T21:13:21.476Z,65.80
2018-08-07T21:15:50.670Z,66.60
2018-08-07T21:18:19.420Z,65.90
2018-08-07T21:20:48.119Z,66.00
2018-08-07T21:23:16.657Z,66.00
2018-08-07T21:25:45.283Z,66.10
2018-08-07T21:28:13.984Z,66.00
2018-08-07T21:30:42.606Z,66.30
2018-08-07T21:33:11.276Z,66.20
2018-08-07T21:35:39.902Z,66.40
2018-08-07T21:38:08.533Z,66.80
2018-08-07T21:40:37.121Z,67.30
2018-08-07T21:43:05.789Z,67.60
2018-08-07T21:45:34.361Z,68.30
2018-08-07T21:48:02.870Z,68.20
2018-08-07T21:50:31.422Z,68.00
2018-08-07T21:52:59.965Z,67.70
2018-08-07T21:55:28.477Z,67.10
2018-08-07T21:57:57.026Z,66.90
2018-08-07T22:00:32.054Z,66.70
2018-08-07T22:03:00.585Z,66.60
2018-08-07T22:05:29.198Z,66.90
2018-08-07T22:07:57.742Z,67.50
2018-08-07T22:10:26.459Z,67.10
2018-08-07T22:12:55.027Z,67.90
2018-08-07T22:15:23.575Z,68.00
2018-08-07T22:17:52.184Z,68.00
2018-08-07T22:20:20.788Z,68.30
2018-08-07T22:22:49.395Z,69.00
2018-08-07T22:25:18.230Z,69.50
2018-08-07T22:27:46.815Z,69.80
2018-08-07T22:30:19.181Z,69.70
2018-08-07T22:32:48.103Z,70.20
2018-08-07T22:35:17.082Z,70.40
2018-08-07T22:37:45.677Z,70.30
2018-08-07T22:40:14.817Z,70.20
2018-08-07T22:42:43.461Z,70.00
2018-08-07T22:45:13.819Z,70.40
2018-08-07T22:47:42.651Z,70.60
2018-08-07T22:50:12.642Z,70.70
2018-08-07T22:52:41.514Z,71.10
2018-08-07T22:55:12.256Z,71.50
2018-08-07T22:57:40.924Z,72.00
2018-08-07T23:00:13.452Z,72.50
2018-08-07T23:02:41.998Z,73.00
2018-08-07T23:05:11.319Z,73.80
2018-08-07T23:07:39.869Z,74.30
2018-08-07T23:10:11.109Z,74.50
2018-08-07T23:12:39.774Z,75.30
2018-08-07T23:15:11.712Z,75.90
2018-08-07T23:17:40.652Z,76.00
2018-08-07T23:20:10.479Z,76.50
2018-08-07T23:22:39.116Z,77.00
2018-08-07T23:25:07.673Z,78.10
2018-08-07T23:27:36.627Z,79.20
2018-08-07T23:30:07.129Z,80.40
2018-08-07T23:32:35.869Z,82.50
2018-08-07T23:35:04.870Z,82.70
2018-08-07T23:37:33.444Z,83.50
2018-08-07T23:40:02.193Z,84.50
2018-08-07T23:42:30.834Z,85.90
2018-08-07T23:44:59.898Z,87.20
2018-08-07T23:47:28.694Z,88.00
2018-08-07T23:49:57.282Z,88.20
2018-08-07T23:52:26.162Z,88.40
2018-08-07T23:54:54.765Z,89.00
2018-08-07T23:57:23.369Z,90.00
2018-08-07T23:59:51.949Z,90.50
